sensor_id;sensor_type;location;lat;lon;timestamp;P1;durP1;ratioP1;P2;durP2;ratioP2
43540;SDS011;29549;40.386;-3.710;2023-08-31T00:07:16;5.80;;;3.10;;
43540;SDS011;29549;40.386;-3.710;2023-08-31T00:17:16;9.48;;;3.28;;
43540;SDS011;29549;40.386;-3.710;2023-08-31T00:27:20;7.88;;;2.72;;
43540;SDS011;29549;40.386;-3.710;2023-08-31T00:37:21;5.97;;;3.13;;
43540;SDS011;29549;40.386;-3.710;2023-08-31T00:47:22;7.80;;;3.00;;
43540;SDS011;29549;40.386;-3.710;2023-08-31T00:57:23;6.13;;;2.88;;
43540;SDS011;29549;40.386;-3.710;2023-08-31T01:17:28;3.63;;;2.00;;
43540;SDS011;29549;40.386;-3.710;2023-08-31T01:27:30;3.30;;;2.17;;
43540;SDS011;29549;40.386;-3.710;2023-08-31T01:37:50;5.00;;;3.28;;
43540;SDS011;29549;40.386;-3.710;2023-08-31T01:47:57;6.00;;;2.60;;
43540;SDS011;29549;40.386;-3.710;2023-08-31T01:57:58;4.32;;;3.03;;
43540;SDS011;29549;40.386;-3.710;2023-08-31T02:07:59;8.32;;;3.53;;
43540;SDS011;29549;40.386;-3.710;2023-08-31T02:17:59;4.40;;;2.20;;
43540;SDS011;29549;40.386;-3.710;2023-08-31T02:28:00;4.70;;;2.08;;
43540;SDS011;29549;40.386;-3.710;2023-08-31T02:38:01;3.85;;;2.28;;
43540;SDS011;29549;40.386;-3.710;2023-08-31T02:48:02;5.80;;;2.22;;
43540;SDS011;29549;40.386;-3.710;2023-08-31T02:58:03;6.82;;;2.58;;
43540;SDS011;29549;40.386;-3.710;2023-08-31T03:08:04;6.53;;;2.70;;
43540;SDS011;29549;40.386;-3.710;2023-08-31T03:18:05;3.25;;;2.25;;
43540;SDS011;29549;40.386;-3.710;2023-08-31T03:28:06;3.78;;;2.17;;
43540;SDS011;29549;40.386;-3.710;2023-08-31T03:38:07;4.63;;;2.40;;
43540;SDS011;29549;40.386;-3.710;2023-08-31T03:48:08;3.67;;;1.85;;
43540;SDS011;29549;40.386;-3.710;2023-08-31T03:58:09;3.78;;;2.05;;
43540;SDS011;29549;40.386;-3.710;2023-08-31T04:08:09;3.38;;;1.90;;
43540;SDS011;29549;40.386;-3.710;2023-08-31T04:18:10;3.67;;;1.80;;
43540;SDS011;29549;40.386;-3.710;2023-08-31T04:28:11;4.68;;;2.28;;
43540;SDS011;29549;40.386;-3.710;2023-08-31T04:38:12;2.92;;;1.92;;
43540;SDS011;29549;40.386;-3.710;2023-08-31T04:48:13;4.32;;;2.22;;
43540;SDS011;29549;40.386;-3.710;2023-08-31T04:58:15;3.60;;;2.70;;
43540;SDS011;29549;40.386;-3.710;2023-08-31T05:08:16;4.72;;;2.42;;
43540;SDS011;29549;40.386;-3.710;2023-08-31T05:18:17;7.45;;;2.03;;
43540;SDS011;29549;40.386;-3.710;2023-08-31T05:28:18;11.00;;;7.47;;
43540;SDS011;29549;40.386;-3.710;2023-08-31T05:38:18;5.53;;;1.90;;
43540;SDS011;29549;40.386;-3.710;2023-08-31T05:48:19;8.18;;;4.78;;
43540;SDS011;29549;40.386;-3.710;2023-08-31T05:58:20;4.70;;;2.30;;
43540;SDS011;29549;40.386;-3.710;2023-08-31T06:08:21;6.10;;;2.33;;
43540;SDS011;29549;40.386;-3.710;2023-08-31T06:18:21;7.20;;;2.58;;
43540;SDS011;29549;40.386;-3.710;2023-08-31T06:28:22;6.60;;;2.65;;
43540;SDS011;29549;40.386;-3.710;2023-08-31T06:38:23;6.95;;;2.70;;
43540;SDS011;29549;40.386;-3.710;2023-08-31T06:48:24;9.38;;;2.42;;
43540;SDS011;29549;40.386;-3.710;2023-08-31T06:58:25;7.90;;;2.97;;
43540;SDS011;29549;40.386;-3.710;2023-08-31T07:08:26;7.22;;;2.83;;
43540;SDS011;29549;40.386;-3.710;2023-08-31T07:18:26;9.43;;;2.90;;
43540;SDS011;29549;40.386;-3.710;2023-08-31T07:28:27;10.90;;;2.63;;
43540;SDS011;29549;40.386;-3.710;2023-08-31T07:38:28;9.43;;;3.20;;
43540;SDS011;29549;40.386;-3.710;2023-08-31T07:48:30;4.60;;;2.00;;
43540;SDS011;29549;40.386;-3.710;2023-08-31T07:58:31;7.53;;;2.35;;
43540;SDS011;29549;40.386;-3.710;2023-08-31T08:08:31;5.57;;;2.38;;
43540;SDS011;29549;40.386;-3.710;2023-08-31T08:18:32;5.70;;;2.25;;
43540;SDS011;29549;40.386;-3.710;2023-08-31T08:28:33;6.13;;;2.17;;
43540;SDS011;29549;40.386;-3.710;2023-08-31T08:38:34;4.75;;;1.95;;
43540;SDS011;29549;40.386;-3.710;2023-08-31T08:48:34;5.32;;;2.05;;
43540;SDS011;29549;40.386;-3.710;2023-08-31T08:58:36;6.07;;;2.60;;
43540;SDS011;29549;40.386;-3.710;2023-08-31T09:08:37;6.72;;;2.38;;
43540;SDS011;29549;40.386;-3.710;2023-08-31T09:18:41;7.60;;;2.60;;
43540;SDS011;29549;40.386;-3.710;2023-08-31T09:28:42;12.10;;;3.65;;
43540;SDS011;29549;40.386;-3.710;2023-08-31T09:38:44;10.63;;;2.77;;
43540;SDS011;29549;40.386;-3.710;2023-08-31T09:48:45;9.63;;;2.37;;
43540;SDS011;29549;40.386;-3.710;2023-08-31T09:58:47;10.60;;;2.75;;
43540;SDS011;29549;40.386;-3.710;2023-08-31T10:08:48;7.87;;;3.87;;
43540;SDS011;29549;40.386;-3.710;2023-08-31T10:18:49;9.52;;;2.13;;
43540;SDS011;29549;40.386;-3.710;2023-08-31T10:28:50;8.30;;;2.07;;
43540;SDS011;29549;40.386;-3.710;2023-08-31T10:48:59;7.10;;;2.58;;
43540;SDS011;29549;40.386;-3.710;2023-08-31T10:59:10;3.80;;;2.10;;
43540;SDS011;29549;40.386;-3.710;2023-08-31T11:09:20;6.13;;;2.70;;
43540;SDS011;29549;40.386;-3.710;2023-08-31T11:19:21;3.95;;;2.30;;
43540;SDS011;29549;40.386;-3.710;2023-08-31T11:29:22;4.87;;;2.10;;
43540;SDS011;29549;40.386;-3.710;2023-08-31T11:39:23;6.80;;;2.20;;
43540;SDS011;29549;40.386;-3.710;2023-08-31T11:49:24;8.47;;;3.07;;
43540;SDS011;29549;40.386;-3.710;2023-08-31T11:59:28;5.95;;;2.45;;
43540;SDS011;29549;40.386;-3.710;2023-08-31T12:09:28;4.07;;;2.20;;
43540;SDS011;29549;40.386;-3.710;2023-08-31T12:19:30;6.50;;;3.40;;
43540;SDS011;29549;40.386;-3.710;2023-08-31T12:29:31;8.85;;;3.60;;
43540;SDS011;29549;40.386;-3.710;2023-08-31T12:39:32;4.77;;;3.37;;
43540;SDS011;29549;40.386;-3.710;2023-08-31T12:49:32;4.10;;;1.60;;
43540;SDS011;29549;40.386;-3.710;2023-08-31T12:59:33;4.43;;;2.00;;
43540;SDS011;29549;40.386;-3.710;2023-08-31T13:09:34;3.53;;;1.90;;
43540;SDS011;29549;40.386;-3.710;2023-08-31T13:29:35;7.40;;;2.50;;
43540;SDS011;29549;40.386;-3.710;2023-08-31T13:39:36;4.53;;;2.50;;
43540;SDS011;29549;40.386;-3.710;2023-08-31T13:49:37;3.40;;;1.95;;
43540;SDS011;29549;40.386;-3.710;2023-08-31T13:59:38;8.75;;;7.35;;
43540;SDS011;29549;40.386;-3.710;2023-08-31T14:09:38;5.72;;;2.17;;
43540;SDS011;29549;40.386;-3.710;2023-08-31T14:19:39;7.82;;;4.30;;
43540;SDS011;29549;40.386;-3.710;2023-08-31T14:29:40;5.97;;;2.22;;
43540;SDS011;29549;40.386;-3.710;2023-08-31T14:39:41;16.58;;;3.60;;
43540;SDS011;29549;40.386;-3.710;2023-08-31T14:49:41;4.88;;;2.20;;
43540;SDS011;29549;40.386;-3.710;2023-08-31T14:59:42;3.17;;;1.75;;
43540;SDS011;29549;40.386;-3.710;2023-08-31T15:09:43;3.08;;;1.80;;
43540;SDS011;29549;40.386;-3.710;2023-08-31T15:19:44;6.88;;;2.53;;
43540;SDS011;29549;40.386;-3.710;2023-08-31T15:29:45;4.60;;;2.95;;
43540;SDS011;29549;40.386;-3.710;2023-08-31T15:39:46;3.33;;;2.10;;
43540;SDS011;29549;40.386;-3.710;2023-08-31T15:49:46;4.88;;;2.10;;
43540;SDS011;29549;40.386;-3.710;2023-08-31T15:59:47;3.75;;;2.17;;
43540;SDS011;29549;40.386;-3.710;2023-08-31T16:09:51;2.80;;;2.03;;
43540;SDS011;29549;40.386;-3.710;2023-08-31T16:19:52;3.17;;;1.83;;
43540;SDS011;29549;40.386;-3.710;2023-08-31T16:29:53;4.43;;;2.97;;
43540;SDS011;29549;40.386;-3.710;2023-08-31T16:39:54;5.80;;;2.50;;
43540;SDS011;29549;40.386;-3.710;2023-08-31T16:49:57;19.45;;;3.55;;
43540;SDS011;29549;40.386;-3.710;2023-08-31T16:59:59;12.65;;;7.43;;
43540;SDS011;29549;40.386;-3.710;2023-08-31T17:09:59;5.78;;;3.60;;
43540;SDS011;29549;40.386;-3.710;2023-08-31T17:20:01;5.97;;;3.38;;
43540;SDS011;29549;40.386;-3.710;2023-08-31T17:30:06;3.42;;;2.30;;
43540;SDS011;29549;40.386;-3.710;2023-08-31T17:40:07;4.03;;;2.20;;
43540;SDS011;29549;40.386;-3.710;2023-08-31T17:50:08;6.50;;;2.85;;
43540;SDS011;29549;40.386;-3.710;2023-08-31T18:00:10;7.40;;;3.17;;
43540;SDS011;29549;40.386;-3.710;2023-08-31T18:10:11;6.18;;;2.70;;
43540;SDS011;29549;40.386;-3.710;2023-08-31T18:20:12;3.30;;;2.30;;
43540;SDS011;29549;40.386;-3.710;2023-08-31T18:30:13;5.20;;;3.40;;
43540;SDS011;29549;40.386;-3.710;2023-08-31T18:40:14;7.38;;;3.60;;
43540;SDS011;29549;40.386;-3.710;2023-08-31T18:50:15;5.70;;;2.75;;
43540;SDS011;29549;40.386;-3.710;2023-08-31T19:00:21;4.53;;;3.40;;
43540;SDS011;29549;40.386;-3.710;2023-08-31T19:10:22;7.68;;;3.88;;
43540;SDS011;29549;40.386;-3.710;2023-08-31T19:20:23;8.80;;;4.95;;
43540;SDS011;29549;40.386;-3.710;2023-08-31T19:30:24;12.60;;;6.65;;
43540;SDS011;29549;40.386;-3.710;2023-08-31T19:50:25;12.40;;;7.00;;
43540;SDS011;29549;40.386;-3.710;2023-08-31T20:00:27;13.90;;;8.45;;
43540;SDS011;29549;40.386;-3.710;2023-08-31T20:10:28;12.88;;;7.43;;
43540;SDS011;29549;40.386;-3.710;2023-08-31T20:20:29;17.03;;;9.83;;
43540;SDS011;29549;40.386;-3.710;2023-08-31T20:30:30;14.40;;;7.97;;
43540;SDS011;29549;40.386;-3.710;2023-08-31T20:40:36;11.25;;;7.90;;
43540;SDS011;29549;40.386;-3.710;2023-08-31T20:50:39;15.55;;;6.95;;
43540;SDS011;29549;40.386;-3.710;2023-08-31T21:00:39;14.70;;;7.10;;
43540;SDS011;29549;40.386;-3.710;2023-08-31T21:10:40;13.07;;;7.60;;
43540;SDS011;29549;40.386;-3.710;2023-08-31T21:20:42;19.93;;;9.93;;
43540;SDS011;29549;40.386;-3.710;2023-08-31T21:30:43;19.75;;;10.25;;
43540;SDS011;29549;40.386;-3.710;2023-08-31T21:40:45;16.47;;;9.23;;
43540;SDS011;29549;40.386;-3.710;2023-08-31T21:50:49;18.52;;;7.53;;
43540;SDS011;29549;40.386;-3.710;2023-08-31T22:00:50;9.60;;;4.73;;
43540;SDS011;29549;40.386;-3.710;2023-08-31T22:10:51;11.68;;;5.80;;
43540;SDS011;29549;40.386;-3.710;2023-08-31T22:20:52;11.47;;;6.20;;
43540;SDS011;29549;40.386;-3.710;2023-08-31T22:30:53;9.37;;;6.10;;
43540;SDS011;29549;40.386;-3.710;2023-08-31T22:40:54;8.30;;;5.37;;
43540;SDS011;29549;40.386;-3.710;2023-08-31T22:51:00;14.63;;;6.63;;
43540;SDS011;29549;40.386;-3.710;2023-08-31T23:01:03;13.55;;;7.57;;
43540;SDS011;29549;40.386;-3.710;2023-08-31T23:11:04;11.33;;;7.07;;
43540;SDS011;29549;40.386;-3.710;2023-08-31T23:21:06;11.00;;;7.00;;
43540;SDS011;29549;40.386;-3.710;2023-08-31T23:31:08;16.85;;;6.97;;
43540;SDS011;29549;40.386;-3.710;2023-08-31T23:41:09;12.47;;;7.23;;
43540;SDS011;29549;40.386;-3.710;2023-08-31T23:51:09;17.40;;;7.40;;
